sensor_id;sensor_type;location;lat;lon;timestamp;temperature;humidity
7117;DHT22;3600;48.568;7.870;2022-12-29T00:02:01;10.90;99.90
7117;DHT22;3600;48.568;7.870;2022-12-29T00:04:28;10.90;99.90
7117;DHT22;3600;48.568;7.870;2022-12-29T00:06:55;10.80;99.90
7117;DHT22;3600;48.568;7.870;2022-12-29T00:09:21;10.90;99.90
7117;DHT22;3600;48.568;7.870;2022-12-29T00:11:48;10.90;99.90
7117;DHT22;3600;48.568;7.870;2022-12-29T00:14:16;10.90;99.90
7117;DHT22;3600;48.568;7.870;2022-12-29T00:17:02;10.90;99.90
7117;DHT22;3600;48.568;7.870;2022-12-29T00:19:29;11.00;99.90
7117;DHT22;3600;48.568;7.870;2022-12-29T00:22:14;11.10;99.90
7117;DHT22;3600;48.568;7.870;2022-12-29T00:25:00;11.10;99.90
7117;DHT22;3600;48.568;7.870;2022-12-29T00:27:46;11.10;99.90
7117;DHT22;3600;48.568;7.870;2022-12-29T00:30:33;11.10;99.90
7117;DHT22;3600;48.568;7.870;2022-12-29T00:33:22;11.10;99.90
7117;DHT22;3600;48.568;7.870;2022-12-29T00:36:31;11.10;99.90
7117;DHT22;3600;48.568;7.870;2022-12-29T00:39:06;11.10;99.90
7117;DHT22;3600;48.568;7.870;2022-12-29T00:41:52;11.10;99.90
7117;DHT22;3600;48.568;7.870;2022-12-29T00:44:37;11.10;99.90
7117;DHT22;3600;48.568;7.870;2022-12-29T00:47:04;11.10;99.90
7117;DHT22;3600;48.568;7.870;2022-12-29T00:49:31;11.10;99.90
7117;DHT22;3600;48.568;7.870;2022-12-29T00:52:06;11.00;99.90
7117;DHT22;3600;48.568;7.870;2022-12-29T00:54:38;11.00;99.90
7117;DHT22;3600;48.568;7.870;2022-12-29T00:57:06;11.00;99.90
7117;DHT22;3600;48.568;7.870;2022-12-29T00:59:38;11.00;99.90
7117;DHT22;3600;48.568;7.870;2022-12-29T01:02:06;11.00;99.90
7117;DHT22;3600;48.568;7.870;2022-12-29T01:04:33;11.00;99.90
7117;DHT22;3600;48.568;7.870;2022-12-29T01:07:00;11.00;99.90
7117;DHT22;3600;48.568;7.870;2022-12-29T01:09:27;11.00;99.90
7117;DHT22;3600;48.568;7.870;2022-12-29T01:12:13;11.00;99.90
7117;DHT22;3600;48.568;7.870;2022-12-29T01:14:39;11.00;99.90
7117;DHT22;3600;48.568;7.870;2022-12-29T01:17:06;11.00;99.90
7117;DHT22;3600;48.568;7.870;2022-12-29T01:19:33;10.90;99.90
7117;DHT22;3600;48.568;7.870;2022-12-29T01:22:00;10.90;99.90
7117;DHT22;3600;48.568;7.870;2022-12-29T01:24:27;10.90;99.90
7117;DHT22;3600;48.568;7.870;2022-12-29T01:26:53;10.90;99.90
7117;DHT22;3600;48.568;7.870;2022-12-29T01:29:21;10.90;99.90
7117;DHT22;3600;48.568;7.870;2022-12-29T01:31:48;10.90;99.90
7117;DHT22;3600;48.568;7.870;2022-12-29T01:34:17;10.90;99.90
7117;DHT22;3600;48.568;7.870;2022-12-29T01:36:44;10.90;99.90
7117;DHT22;3600;48.568;7.870;2022-12-29T01:39:11;11.00;99.90
7117;DHT22;3600;48.568;7.870;2022-12-29T01:41:38;10.90;99.90
7117;DHT22;3600;48.568;7.870;2022-12-29T01:47:09;10.90;99.90
7117;DHT22;3600;48.568;7.870;2022-12-29T01:49:37;11.00;99.90
7117;DHT22;3600;48.568;7.870;2022-12-29T01:52:06;11.10;99.90
7117;DHT22;3600;48.568;7.870;2022-12-29T01:54:38;11.10;99.90
7117;DHT22;3600;48.568;7.870;2022-12-29T01:57:12;11.10;99.90
7117;DHT22;3600;48.568;7.870;2022-12-29T01:59:43;11.20;99.90
7117;DHT22;3600;48.568;7.870;2022-12-29T02:02:12;11.10;99.90
7117;DHT22;3600;48.568;7.870;2022-12-29T02:04:41;11.10;99.90
7117;DHT22;3600;48.568;7.870;2022-12-29T02:07:19;11.10;99.90
7117;DHT22;3600;48.568;7.870;2022-12-29T02:09:48;11.00;99.90
7117;DHT22;3600;48.568;7.870;2022-12-29T02:12:18;11.00;99.90
7117;DHT22;3600;48.568;7.870;2022-12-29T02:14:46;11.10;99.90
7117;DHT22;3600;48.568;7.870;2022-12-29T02:17:37;11.00;99.90
7117;DHT22;3600;48.568;7.870;2022-12-29T02:31:58;11.00;99.90
7117;DHT22;3600;48.568;7.870;2022-12-29T02:34:48;11.00;99.90
7117;DHT22;3600;48.568;7.870;2022-12-29T02:40:06;11.30;99.90
7117;DHT22;3600;48.568;7.870;2022-12-29T02:42:47;11.30;99.90
7117;DHT22;3600;48.568;7.870;2022-12-29T02:48:16;11.30;99.90
7117;DHT22;3600;48.568;7.870;2022-12-29T02:50:53;11.40;99.90
7117;DHT22;3600;48.568;7.870;2022-12-29T02:53:21;11.30;99.90
7117;DHT22;3600;48.568;7.870;2022-12-29T02:56:10;11.30;99.90
7117;DHT22;3600;48.568;7.870;2022-12-29T02:58:36;11.30;99.90
7117;DHT22;3600;48.568;7.870;2022-12-29T03:07:02;11.30;99.90
7117;DHT22;3600;48.568;7.870;2022-12-29T03:09:54;11.30;99.90
7117;DHT22;3600;48.568;7.870;2022-12-29T03:12:56;11.30;99.90
7117;DHT22;3600;48.568;7.870;2022-12-29T03:15:50;11.30;99.90
7117;DHT22;3600;48.568;7.870;2022-12-29T03:21:46;11.40;99.90
7117;DHT22;3600;48.568;7.870;2022-12-29T03:24:42;11.30;99.90
7117;DHT22;3600;48.568;7.870;2022-12-29T03:27:13;11.30;99.90
7117;DHT22;3600;48.568;7.870;2022-12-29T03:29:50;11.20;99.90
7117;DHT22;3600;48.568;7.870;2022-12-29T03:32:28;11.20;99.90
7117;DHT22;3600;48.568;7.870;2022-12-29T03:34:58;11.20;99.90
7117;DHT22;3600;48.568;7.870;2022-12-29T03:37:29;11.10;99.90
7117;DHT22;3600;48.568;7.870;2022-12-29T03:39:57;11.10;99.90
7117;DHT22;3600;48.568;7.870;2022-12-29T03:42:26;11.10;99.90
7117;DHT22;3600;48.568;7.870;2022-12-29T03:44:56;11.10;99.90
7117;DHT22;3600;48.568;7.870;2022-12-29T03:47:23;11.00;99.90
7117;DHT22;3600;48.568;7.870;2022-12-29T03:49:50;11.00;99.90
7117;DHT22;3600;48.568;7.870;2022-12-29T03:52:18;10.90;99.90
7117;DHT22;3600;48.568;7.870;2022-12-29T03:54:44;10.90;99.90
7117;DHT22;3600;48.568;7.870;2022-12-29T03:57:11;10.90;99.90
7117;DHT22;3600;48.568;7.870;2022-12-29T03:59:38;10.80;99.90
7117;DHT22;3600;48.568;7.870;2022-12-29T04:02:05;10.90;99.90
7117;DHT22;3600;48.568;7.870;2022-12-29T04:04:31;10.90;99.90
7117;DHT22;3600;48.568;7.870;2022-12-29T04:06:58;10.90;99.90
7117;DHT22;3600;48.568;7.870;2022-12-29T04:09:25;10.90;99.90
7117;DHT22;3600;48.568;7.870;2022-12-29T04:11:51;10.80;99.90
7117;DHT22;3600;48.568;7.870;2022-12-29T04:14:18;10.80;99.90
7117;DHT22;3600;48.568;7.870;2022-12-29T04:16:45;10.80;99.90
7117;DHT22;3600;48.568;7.870;2022-12-29T04:19:11;10.80;99.90
7117;DHT22;3600;48.568;7.870;2022-12-29T04:21:38;10.80;99.90
7117;DHT22;3600;48.568;7.870;2022-12-29T04:24:06;10.70;99.90
7117;DHT22;3600;48.568;7.870;2022-12-29T04:26:33;10.70;99.90
7117;DHT22;3600;48.568;7.870;2022-12-29T04:29:00;10.60;99.90
7117;DHT22;3600;48.568;7.870;2022-12-29T04:31:26;10.60;99.90
7117;DHT22;3600;48.568;7.870;2022-12-29T04:33:53;10.60;99.90
7117;DHT22;3600;48.568;7.870;2022-12-29T04:36:20;10.60;99.90
7117;DHT22;3600;48.568;7.870;2022-12-29T04:38:55;10.60;99.90
7117;DHT22;3600;48.568;7.870;2022-12-29T04:41:21;10.50;99.90
7117;DHT22;3600;48.568;7.870;2022-12-29T04:43:48;10.50;99.90
7117;DHT22;3600;48.568;7.870;2022-12-29T04:46:15;10.50;99.90
7117;DHT22;3600;48.568;7.870;2022-12-29T04:48:41;10.50;99.90
7117;DHT22;3600;48.568;7.870;2022-12-29T04:51:08;10.50;99.90
7117;DHT22;3600;48.568;7.870;2022-12-29T04:53:35;10.50;99.90
7117;DHT22;3600;48.568;7.870;2022-12-29T04:56:01;10.50;99.90
7117;DHT22;3600;48.568;7.870;2022-12-29T04:58:28;10.50;99.90
7117;DHT22;3600;48.568;7.870;2022-12-29T05:00:55;10.50;99.90
7117;DHT22;3600;48.568;7.870;2022-12-29T05:03:21;10.50;99.90
7117;DHT22;3600;48.568;7.870;2022-12-29T05:05:48;10.50;99.90
7117;DHT22;3600;48.568;7.870;2022-12-29T05:08:15;10.40;99.90
7117;DHT22;3600;48.568;7.870;2022-12-29T05:10:44;10.40;99.90
7117;DHT22;3600;48.568;7.870;2022-12-29T05:13:12;10.40;99.90
7117;DHT22;3600;48.568;7.870;2022-12-29T05:15:40;10.40;99.90
7117;DHT22;3600;48.568;7.870;2022-12-29T05:18:07;10.40;99.90
7117;DHT22;3600;48.568;7.870;2022-12-29T05:20:33;10.40;99.90
7117;DHT22;3600;48.568;7.870;2022-12-29T05:23:00;10.40;99.90
7117;DHT22;3600;48.568;7.870;2022-12-29T05:25:27;10.40;99.90
7117;DHT22;3600;48.568;7.870;2022-12-29T05:27:53;10.40;99.90
7117;DHT22;3600;48.568;7.870;2022-12-29T05:30:20;10.40;99.90
7117;DHT22;3600;48.568;7.870;2022-12-29T05:32:47;10.40;99.90
7117;DHT22;3600;48.568;7.870;2022-12-29T05:35:13;10.50;99.90
7117;DHT22;3600;48.568;7.870;2022-12-29T05:37:40;10.50;99.90
7117;DHT22;3600;48.568;7.870;2022-12-29T05:40:07;10.50;99.90
7117;DHT22;3600;48.568;7.870;2022-12-29T05:42:34;10.50;99.90
7117;DHT22;3600;48.568;7.870;2022-12-29T05:45:01;10.50;99.90
7117;DHT22;3600;48.568;7.870;2022-12-29T05:47:27;10.50;99.90
7117;DHT22;3600;48.568;7.870;2022-12-29T05:49:54;10.50;99.90
7117;DHT22;3600;48.568;7.870;2022-12-29T05:52:21;10.50;99.90
7117;DHT22;3600;48.568;7.870;2022-12-29T05:54:47;10.50;99.90
7117;DHT22;3600;48.568;7.870;2022-12-29T05:57:14;10.50;99.90
7117;DHT22;3600;48.568;7.870;2022-12-29T05:59:41;10.60;99.90
7117;DHT22;3600;48.568;7.870;2022-12-29T06:02:08;10.60;99.90
7117;DHT22;3600;48.568;7.870;2022-12-29T06:04:35;10.60;99.90
7117;DHT22;3600;48.568;7.870;2022-12-29T06:07:02;10.60;99.90
7117;DHT22;3600;48.568;7.870;2022-12-29T06:09:28;10.60;99.90
7117;DHT22;3600;48.568;7.870;2022-12-29T06:11:55;10.70;99.90
7117;DHT22;3600;48.568;7.870;2022-12-29T06:14:22;10.60;99.90
7117;DHT22;3600;48.568;7.870;2022-12-29T06:16:48;10.60;99.90
7117;DHT22;3600;48.568;7.870;2022-12-29T06:19:15;10.70;99.90
7117;DHT22;3600;48.568;7.870;2022-12-29T06:21:42;10.70;99.90
7117;DHT22;3600;48.568;7.870;2022-12-29T06:24:09;10.70;99.90
7117;DHT22;3600;48.568;7.870;2022-12-29T06:26:37;10.70;99.90
7117;DHT22;3600;48.568;7.870;2022-12-29T06:29:04;10.70;99.90
7117;DHT22;3600;48.568;7.870;2022-12-29T06:31:31;10.70;99.90
7117;DHT22;3600;48.568;7.870;2022-12-29T06:33:57;10.70;99.90
7117;DHT22;3600;48.568;7.870;2022-12-29T06:36:32;10.70;99.90
7117;DHT22;3600;48.568;7.870;2022-12-29T06:38:58;10.70;99.90
7117;DHT22;3600;48.568;7.870;2022-12-29T06:41:25;10.70;99.90
7117;DHT22;3600;48.568;7.870;2022-12-29T06:43:57;10.70;99.90
7117;DHT22;3600;48.568;7.870;2022-12-29T06:46:24;10.70;99.90
7117;DHT22;3600;48.568;7.870;2022-12-29T06:48:51;10.70;99.90
7117;DHT22;3600;48.568;7.870;2022-12-29T06:51:18;10.70;99.90
7117;DHT22;3600;48.568;7.870;2022-12-29T06:53:44;10.70;99.90
7117;DHT22;3600;48.568;7.870;2022-12-29T06:56:11;10.70;99.90
7117;DHT22;3600;48.568;7.870;2022-12-29T06:58:38;10.70;99.90
7117;DHT22;3600;48.568;7.870;2022-12-29T07:01:05;10.70;99.90
7117;DHT22;3600;48.568;7.870;2022-12-29T07:03:31;10.80;99.90
7117;DHT22;3600;48.568;7.870;2022-12-29T07:05:58;10.80;99.90
7117;DHT22;3600;48.568;7.870;2022-12-29T07:08:25;10.80;99.90
7117;DHT22;3600;48.568;7.870;2022-12-29T07:10:52;10.90;99.90
7117;DHT22;3600;48.568;7.870;2022-12-29T07:13:18;10.90;99.90
7117;DHT22;3600;48.568;7.870;2022-12-29T07:15:45;10.90;99.90
7117;DHT22;3600;48.568;7.870;2022-12-29T07:18:12;10.90;99.90
7117;DHT22;3600;48.568;7.870;2022-12-29T07:20:39;10.90;99.90
7117;DHT22;3600;48.568;7.870;2022-12-29T07:23:06;11.00;99.90
7117;DHT22;3600;48.568;7.870;2022-12-29T07:25:32;10.90;99.90
7117;DHT22;3600;48.568;7.870;2022-12-29T07:28:02;11.00;99.90
7117;DHT22;3600;48.568;7.870;2022-12-29T07:30:29;11.00;99.90
7117;DHT22;3600;48.568;7.870;2022-12-29T07:32:56;11.10;99.90
7117;DHT22;3600;48.568;7.870;2022-12-29T07:35:23;11.10;99.90
7117;DHT22;3600;48.568;7.870;2022-12-29T07:37:50;11.10;99.90
7117;DHT22;3600;48.568;7.870;2022-12-29T07:40:17;11.10;99.90
7117;DHT22;3600;48.568;7.870;2022-12-29T07:42:44;11.10;99.90
7117;DHT22;3600;48.568;7.870;2022-12-29T07:45:10;11.10;99.90
7117;DHT22;3600;48.568;7.870;2022-12-29T07:47:37;11.10;99.90
7117;DHT22;3600;48.568;7.870;2022-12-29T07:50:05;11.10;99.90
7117;DHT22;3600;48.568;7.870;2022-12-29T07:52:32;11.10;99.90
7117;DHT22;3600;48.568;7.870;2022-12-29T07:54:59;11.10;99.90
7117;DHT22;3600;48.568;7.870;2022-12-29T07:57:25;11.10;99.90
7117;DHT22;3600;48.568;7.870;2022-12-29T07:59:58;11.20;99.90
7117;DHT22;3600;48.568;7.870;2022-12-29T08:02:24;11.20;99.90
7117;DHT22;3600;48.568;7.870;2022-12-29T08:04:53;11.20;99.90
7117;DHT22;3600;48.568;7.870;2022-12-29T08:07:19;11.20;99.90
7117;DHT22;3600;48.568;7.870;2022-12-29T08:09:46;11.20;99.90
7117;DHT22;3600;48.568;7.870;2022-12-29T08:12:13;11.20;99.90
7117;DHT22;3600;48.568;7.870;2022-12-29T08:14:39;11.30;99.90
7117;DHT22;3600;48.568;7.870;2022-12-29T08:17:06;11.30;99.90
7117;DHT22;3600;48.568;7.870;2022-12-29T08:19:33;11.30;99.90
7117;DHT22;3600;48.568;7.870;2022-12-29T08:22:00;11.40;99.90
7117;DHT22;3600;48.568;7.870;2022-12-29T08:24:26;11.40;99.90
7117;DHT22;3600;48.568;7.870;2022-12-29T08:26:53;11.40;99.90
7117;DHT22;3600;48.568;7.870;2022-12-29T08:29:20;11.50;99.90
7117;DHT22;3600;48.568;7.870;2022-12-29T08:31:48;11.70;99.90
7117;DHT22;3600;48.568;7.870;2022-12-29T08:34:14;11.80;99.90
7117;DHT22;3600;48.568;7.870;2022-12-29T08:36:41;11.80;99.90
7117;DHT22;3600;48.568;7.870;2022-12-29T08:39:08;11.90;99.90
7117;DHT22;3600;48.568;7.870;2022-12-29T08:41:34;12.00;99.90
7117;DHT22;3600;48.568;7.870;2022-12-29T08:44:01;12.10;99.90
7117;DHT22;3600;48.568;7.870;2022-12-29T08:46:28;12.10;99.90
7117;DHT22;3600;48.568;7.870;2022-12-29T08:48:55;12.10;99.90
7117;DHT22;3600;48.568;7.870;2022-12-29T08:51:22;12.10;99.90
7117;DHT22;3600;48.568;7.870;2022-12-29T08:53:51;12.10;99.90
7117;DHT22;3600;48.568;7.870;2022-12-29T08:56:18;12.20;99.90
7117;DHT22;3600;48.568;7.870;2022-12-29T08:58:45;12.20;99.90
7117;DHT22;3600;48.568;7.870;2022-12-29T09:01:11;12.20;99.90
7117;DHT22;3600;48.568;7.870;2022-12-29T09:03:38;12.20;99.90
7117;DHT22;3600;48.568;7.870;2022-12-29T09:06:25;12.30;99.90
7117;DHT22;3600;48.568;7.870;2022-12-29T09:08:54;12.30;99.90
7117;DHT22;3600;48.568;7.870;2022-12-29T09:11:23;12.30;99.90
7117;DHT22;3600;48.568;7.870;2022-12-29T09:13:51;12.30;99.90
7117;DHT22;3600;48.568;7.870;2022-12-29T09:16:20;12.30;99.90
7117;DHT22;3600;48.568;7.870;2022-12-29T09:18:47;12.30;99.90
7117;DHT22;3600;48.568;7.870;2022-12-29T09:21:13;12.30;99.90
7117;DHT22;3600;48.568;7.870;2022-12-29T09:23:40;12.30;99.90
7117;DHT22;3600;48.568;7.870;2022-12-29T09:26:08;12.30;99.90
7117;DHT22;3600;48.568;7.870;2022-12-29T09:28:35;12.30;99.90
7117;DHT22;3600;48.568;7.870;2022-12-29T09:31:02;12.40;99.90
7117;DHT22;3600;48.568;7.870;2022-12-29T09:33:29;12.40;99.90
7117;DHT22;3600;48.568;7.870;2022-12-29T09:35:57;12.30;99.90
7117;DHT22;3600;48.568;7.870;2022-12-29T09:38:26;12.30;99.90
7117;DHT22;3600;48.568;7.870;2022-12-29T09:41:04;12.30;99.90
7117;DHT22;3600;48.568;7.870;2022-12-29T09:46:39;12.20;99.90
7117;DHT22;3600;48.568;7.870;2022-12-29T09:52:03;12.20;99.90
7117;DHT22;3600;48.568;7.870;2022-12-29T09:57:34;12.10;99.90
7117;DHT22;3600;48.568;7.870;2022-12-29T10:02:50;12.30;99.90
7117;DHT22;3600;48.568;7.870;2022-12-29T10:05:27;12.30;99.90
7117;DHT22;3600;48.568;7.870;2022-12-29T10:08:20;12.30;99.90
7117;DHT22;3600;48.568;7.870;2022-12-29T10:11:15;12.30;99.90
7117;DHT22;3600;48.568;7.870;2022-12-29T10:16:57;12.30;99.90
7117;DHT22;3600;48.568;7.870;2022-12-29T10:24:51;12.40;99.90
7117;DHT22;3600;48.568;7.870;2022-12-29T10:27:19;12.40;99.90
7117;DHT22;3600;48.568;7.870;2022-12-29T10:29:53;12.40;99.90
7117;DHT22;3600;48.568;7.870;2022-12-29T10:32:29;12.50;99.90
7117;DHT22;3600;48.568;7.870;2022-12-29T10:37:56;12.60;99.90
7117;DHT22;3600;48.568;7.870;2022-12-29T10:40:48;12.60;99.90
7117;DHT22;3600;48.568;7.870;2022-12-29T10:43:29;12.60;99.90
7117;DHT22;3600;48.568;7.870;2022-12-29T10:45:59;12.60;99.90
7117;DHT22;3600;48.568;7.870;2022-12-29T10:48:32;12.50;99.90
7117;DHT22;3600;48.568;7.870;2022-12-29T10:51:07;12.50;99.90
7117;DHT22;3600;48.568;7.870;2022-12-29T10:53:59;12.50;99.90
7117;DHT22;3600;48.568;7.870;2022-12-29T10:56:49;12.50;99.90
7117;DHT22;3600;48.568;7.870;2022-12-29T10:59:25;12.40;99.90
7117;DHT22;3600;48.568;7.870;2022-12-29T11:07:16;12.40;99.90
7117;DHT22;3600;48.568;7.870;2022-12-29T11:09:50;12.40;99.90
7117;DHT22;3600;48.568;7.870;2022-12-29T11:12:29;12.40;99.90
7117;DHT22;3600;48.568;7.870;2022-12-29T11:17:49;12.40;99.90
7117;DHT22;3600;48.568;7.870;2022-12-29T11:22:46;12.30;99.90
7117;DHT22;3600;48.568;7.870;2022-12-29T11:25:13;12.20;99.90
7117;DHT22;3600;48.568;7.870;2022-12-29T11:27:55;12.20;99.90
7117;DHT22;3600;48.568;7.870;2022-12-29T11:30:28;12.20;99.90
7117;DHT22;3600;48.568;7.870;2022-12-29T11:32:56;12.20;99.90
7117;DHT22;3600;48.568;7.870;2022-12-29T11:35:43;12.20;99.90
7117;DHT22;3600;48.568;7.870;2022-12-29T11:38:22;12.20;99.90
7117;DHT22;3600;48.568;7.870;2022-12-29T11:40:50;12.20;99.90
7117;DHT22;3600;48.568;7.870;2022-12-29T11:43:34;12.20;99.90
7117;DHT22;3600;48.568;7.870;2022-12-29T11:46:04;12.20;99.90
7117;DHT22;3600;48.568;7.870;2022-12-29T11:48:41;12.30;99.90
7117;DHT22;3600;48.568;7.870;2022-12-29T11:51:09;12.30;99.90
7117;DHT22;3600;48.568;7.870;2022-12-29T11:53:47;12.30;99.90
7117;DHT22;3600;48.568;7.870;2022-12-29T11:56:17;12.30;99.90
7117;DHT22;3600;48.568;7.870;2022-12-29T11:58:46;12.40;99.90
7117;DHT22;3600;48.568;7.870;2022-12-29T12:01:33;12.50;99.90
7117;DHT22;3600;48.568;7.870;2022-12-29T12:04:07;12.50;99.90
7117;DHT22;3600;48.568;7.870;2022-12-29T12:07:00;12.50;99.90
7117;DHT22;3600;48.568;7.870;2022-12-29T12:09:36;12.50;99.90
7117;DHT22;3600;48.568;7.870;2022-12-29T12:12:03;12.50;99.90
7117;DHT22;3600;48.568;7.870;2022-12-29T12:14:57;12.50;99.90
7117;DHT22;3600;48.568;7.870;2022-12-29T12:17:35;12.50;99.90
7117;DHT22;3600;48.568;7.870;2022-12-29T12:20:16;12.60;99.90
7117;DHT22;3600;48.568;7.870;2022-12-29T12:22:58;12.60;99.90
7117;DHT22;3600;48.568;7.870;2022-12-29T12:25:36;12.60;99.90
7117;DHT22;3600;48.568;7.870;2022-12-29T12:28:26;12.70;99.90
7117;DHT22;3600;48.568;7.870;2022-12-29T12:31:06;12.70;99.90
7117;DHT22;3600;48.568;7.870;2022-12-29T12:33:41;12.60;99.90
7117;DHT22;3600;48.568;7.870;2022-12-29T12:41:16;12.60;99.90
7117;DHT22;3600;48.568;7.870;2022-12-29T12:54:59;12.60;99.90
7117;DHT22;3600;48.568;7.870;2022-12-29T13:00:49;12.50;99.90
7117;DHT22;3600;48.568;7.870;2022-12-29T13:03:50;12.50;99.90
7117;DHT22;3600;48.568;7.870;2022-12-29T13:06:36;12.50;99.90
7117;DHT22;3600;48.568;7.870;2022-12-29T13:09:32;12.50;99.90
7117;DHT22;3600;48.568;7.870;2022-12-29T13:12:34;12.50;99.90
7117;DHT22;3600;48.568;7.870;2022-12-29T13:23:26;12.70;99.90
7117;DHT22;3600;48.568;7.870;2022-12-29T13:26:18;12.70;99.90
7117;DHT22;3600;48.568;7.870;2022-12-29T13:29:03;12.80;99.90
7117;DHT22;3600;48.568;7.870;2022-12-29T13:31:52;12.90;99.90
7117;DHT22;3600;48.568;7.870;2022-12-29T13:37:00;13.00;99.90
7117;DHT22;3600;48.568;7.870;2022-12-29T13:39:40;13.00;99.90
7117;DHT22;3600;48.568;7.870;2022-12-29T13:42:09;13.10;99.90
7117;DHT22;3600;48.568;7.870;2022-12-29T13:45:00;13.10;99.90
7117;DHT22;3600;48.568;7.870;2022-12-29T13:47:40;13.00;99.90
7117;DHT22;3600;48.568;7.870;2022-12-29T13:50:15;13.00;99.90
7117;DHT22;3600;48.568;7.870;2022-12-29T13:53:00;13.00;99.90
7117;DHT22;3600;48.568;7.870;2022-12-29T13:55:37;13.00;99.90
7117;DHT22;3600;48.568;7.870;2022-12-29T13:58:36;13.00;99.90
7117;DHT22;3600;48.568;7.870;2022-12-29T14:01:30;13.10;99.90
7117;DHT22;3600;48.568;7.870;2022-12-29T14:04:00;12.90;99.90
7117;DHT22;3600;48.568;7.870;2022-12-29T14:06:30;12.90;99.90
7117;DHT22;3600;48.568;7.870;2022-12-29T14:09:05;12.90;99.90
7117;DHT22;3600;48.568;7.870;2022-12-29T14:11:39;12.90;99.90
7117;DHT22;3600;48.568;7.870;2022-12-29T14:14:20;12.90;99.90
7117;DHT22;3600;48.568;7.870;2022-12-29T14:16:47;12.80;99.90
7117;DHT22;3600;48.568;7.870;2022-12-29T14:19:22;12.90;99.90
7117;DHT22;3600;48.568;7.870;2022-12-29T14:21:55;12.90;99.90
7117;DHT22;3600;48.568;7.870;2022-12-29T14:34:56;12.20;99.90
7117;DHT22;3600;48.568;7.870;2022-12-29T14:42:48;11.60;99.90
7117;DHT22;3600;48.568;7.870;2022-12-29T14:47:49;11.60;99.90
7117;DHT22;3600;48.568;7.870;2022-12-29T14:50:22;11.60;99.90
7117;DHT22;3600;48.568;7.870;2022-12-29T14:55:36;11.50;99.90
7117;DHT22;3600;48.568;7.870;2022-12-29T15:00:52;11.50;99.90
7117;DHT22;3600;48.568;7.870;2022-12-29T15:03:24;11.40;99.90
7117;DHT22;3600;48.568;7.870;2022-12-29T15:05:58;11.30;99.90
7117;DHT22;3600;48.568;7.870;2022-12-29T15:08:54;11.20;99.90
7117;DHT22;3600;48.568;7.870;2022-12-29T15:11:24;11.20;99.90
7117;DHT22;3600;48.568;7.870;2022-12-29T15:13:51;11.20;99.90
7117;DHT22;3600;48.568;7.870;2022-12-29T15:16:31;11.10;99.90
7117;DHT22;3600;48.568;7.870;2022-12-29T15:18:58;11.00;99.90
7117;DHT22;3600;48.568;7.870;2022-12-29T15:21:35;11.00;99.90
7117;DHT22;3600;48.568;7.870;2022-12-29T15:24:03;11.00;99.90
7117;DHT22;3600;48.568;7.870;2022-12-29T15:26:42;10.90;99.90
7117;DHT22;3600;48.568;7.870;2022-12-29T15:29:29;10.90;99.90
7117;DHT22;3600;48.568;7.870;2022-12-29T15:31:59;10.90;99.90
7117;DHT22;3600;48.568;7.870;2022-12-29T15:34:30;10.90;99.90
7117;DHT22;3600;48.568;7.870;2022-12-29T15:36:57;10.90;99.90
7117;DHT22;3600;48.568;7.870;2022-12-29T15:39:30;10.90;99.90
7117;DHT22;3600;48.568;7.870;2022-12-29T15:42:23;10.80;99.90
7117;DHT22;3600;48.568;7.870;2022-12-29T15:44:53;10.80;99.90
7117;DHT22;3600;48.568;7.870;2022-12-29T15:47:35;10.80;99.90
7117;DHT22;3600;48.568;7.870;2022-12-29T15:50:15;10.80;99.90
7117;DHT22;3600;48.568;7.870;2022-12-29T15:52:45;10.80;99.90
7117;DHT22;3600;48.568;7.870;2022-12-29T15:55:41;10.80;99.90
7117;DHT22;3600;48.568;7.870;2022-12-29T15:58:23;10.70;99.90
7117;DHT22;3600;48.568;7.870;2022-12-29T16:00:59;10.70;99.90
7117;DHT22;3600;48.568;7.870;2022-12-29T16:03:31;10.70;99.90
7117;DHT22;3600;48.568;7.870;2022-12-29T16:06:10;10.70;99.90
7117;DHT22;3600;48.568;7.870;2022-12-29T16:08:39;10.60;99.90
7117;DHT22;3600;48.568;7.870;2022-12-29T16:11:31;10.70;99.90
7117;DHT22;3600;48.568;7.870;2022-12-29T16:13:59;10.60;99.90
7117;DHT22;3600;48.568;7.870;2022-12-29T16:16:29;10.70;99.90
7117;DHT22;3600;48.568;7.870;2022-12-29T16:19:09;10.60;99.90
7117;DHT22;3600;48.568;7.870;2022-12-29T16:21:38;10.60;99.90
7117;DHT22;3600;48.568;7.870;2022-12-29T16:24:16;10.60;99.90
7117;DHT22;3600;48.568;7.870;2022-12-29T16:27:08;10.60;99.90
7117;DHT22;3600;48.568;7.870;2022-12-29T16:29:36;10.60;99.90
7117;DHT22;3600;48.568;7.870;2022-12-29T16:32:24;10.50;99.90
7117;DHT22;3600;48.568;7.870;2022-12-29T16:35:10;10.50;99.90
7117;DHT22;3600;48.568;7.870;2022-12-29T16:37:38;10.40;99.90
7117;DHT22;3600;48.568;7.870;2022-12-29T16:42:55;10.40;99.90
7117;DHT22;3600;48.568;7.870;2022-12-29T16:48:26;10.40;99.90
7117;DHT22;3600;48.568;7.870;2022-12-29T16:51:17;10.40;99.90
7117;DHT22;3600;48.568;7.870;2022-12-29T16:53:50;10.40;99.90
7117;DHT22;3600;48.568;7.870;2022-12-29T16:56:21;10.40;99.90
7117;DHT22;3600;48.568;7.870;2022-12-29T16:58:55;10.40;99.90
7117;DHT22;3600;48.568;7.870;2022-12-29T17:01:24;10.40;99.90
7117;DHT22;3600;48.568;7.870;2022-12-29T17:03:54;10.40;99.90
7117;DHT22;3600;48.568;7.870;2022-12-29T17:06:23;10.40;99.90
7117;DHT22;3600;48.568;7.870;2022-12-29T17:08:51;10.40;99.90
7117;DHT22;3600;48.568;7.870;2022-12-29T17:11:22;10.40;99.90
7117;DHT22;3600;48.568;7.870;2022-12-29T17:15:05;10.40;99.90
7117;DHT22;3600;48.568;7.870;2022-12-29T17:19:37;10.40;99.90
7117;DHT22;3600;48.568;7.870;2022-12-29T17:22:36;10.30;99.90
7117;DHT22;3600;48.568;7.870;2022-12-29T17:25:03;10.20;99.90
7117;DHT22;3600;48.568;7.870;2022-12-29T17:27:35;10.10;99.90
7117;DHT22;3600;48.568;7.870;2022-12-29T17:30:15;10.20;99.90
7117;DHT22;3600;48.568;7.870;2022-12-29T17:32:43;10.20;99.90
7117;DHT22;3600;48.568;7.870;2022-12-29T17:35:16;10.00;99.90
7117;DHT22;3600;48.568;7.870;2022-12-29T17:37:44;9.90;99.90
7117;DHT22;3600;48.568;7.870;2022-12-29T17:40:16;9.90;99.90
7117;DHT22;3600;48.568;7.870;2022-12-29T17:42:45;9.90;99.90
7117;DHT22;3600;48.568;7.870;2022-12-29T17:45:29;10.00;99.90
7117;DHT22;3600;48.568;7.870;2022-12-29T17:47:57;10.00;99.90
7117;DHT22;3600;48.568;7.870;2022-12-29T17:50:29;9.90;99.90
7117;DHT22;3600;48.568;7.870;2022-12-29T17:52:58;10.00;99.90
7117;DHT22;3600;48.568;7.870;2022-12-29T17:55:27;10.00;99.90
7117;DHT22;3600;48.568;7.870;2022-12-29T17:58:20;9.90;99.90
7117;DHT22;3600;48.568;7.870;2022-12-29T18:00:51;9.80;99.90
7117;DHT22;3600;48.568;7.870;2022-12-29T18:03:39;9.80;99.90
7117;DHT22;3600;48.568;7.870;2022-12-29T18:06:08;9.80;99.90
7117;DHT22;3600;48.568;7.870;2022-12-29T18:08:38;9.80;99.90
7117;DHT22;3600;48.568;7.870;2022-12-29T18:11:24;9.80;99.90
7117;DHT22;3600;48.568;7.870;2022-12-29T18:13:52;9.80;99.90
7117;DHT22;3600;48.568;7.870;2022-12-29T18:16:20;9.80;99.90
7117;DHT22;3600;48.568;7.870;2022-12-29T18:18:47;9.80;99.90
7117;DHT22;3600;48.568;7.870;2022-12-29T18:21:19;9.80;99.90
7117;DHT22;3600;48.568;7.870;2022-12-29T18:23:47;9.80;99.90
7117;DHT22;3600;48.568;7.870;2022-12-29T18:28:56;9.80;99.90
7117;DHT22;3600;48.568;7.870;2022-12-29T18:31:26;9.70;99.90
7117;DHT22;3600;48.568;7.870;2022-12-29T18:33:53;9.70;99.90
7117;DHT22;3600;48.568;7.870;2022-12-29T18:36:22;9.80;99.90
7117;DHT22;3600;48.568;7.870;2022-12-29T18:38:49;9.80;99.90
7117;DHT22;3600;48.568;7.870;2022-12-29T18:41:25;9.80;99.90
7117;DHT22;3600;48.568;7.870;2022-12-29T18:43:55;9.90;99.90
7117;DHT22;3600;48.568;7.870;2022-12-29T18:46:22;9.80;99.90